Time;durP1;ratioP1;P1;durP2;ratioP2;P2;SDS_P1;SDS_P2;PMS_P1;PMS_P2;Temp;Humidity;BMP_temperature;BMP_pressure;BME280_temperature;BME280_humidity;BME280_pressure;Samples;Min_cycle;Max_cycle;Signal;HPM_P1;HPM_P2
2024/03/06 00:00:26;;;;;;;0.60;0.60;;;;;;;4.61;100.00;96852.44;29395;210;63004;-54
2024/03/06 00:00:57;;;;;;;0.60;0.60;;;;;;;4.61;100.00;96865.88;29395;249;63009;-54
2024/03/06 00:01:28;;;;;;;0.60;0.60;;;;;;;4.60;100.00;96858.91;29395;204;63004;-54
2024/03/06 00:02:00;;;;;;;0.60;0.60;;;;;;;4.61;100.00;96860.50;29395;282;63009;-54
2024/03/06 00:02:31;;;;;;;0.60;0.60;;;;;;;4.61;100.00;96854.34;29395;277;63004;-56
2024/03/06 00:03:03;;;;;;;0.60;0.60;;;;;;;4.60;100.00;96855.41;29395;201;63008;-54
2024/03/06 00:03:35;;;;;;;0.60;0.60;;;;;;;4.59;100.00;96851.09;29395;205;63005;-54
2024/03/06 00:04:06;;;;;;;0.60;0.60;;;;;;;4.60;100.00;96858.09;29393;197;64009;-54
2024/03/06 00:04:38;;;;;;;0.60;0.60;;;;;;;4.61;100.00;96860.50;29395;289;63005;-54
2024/03/06 00:05:10;;;;;;;0.60;0.60;;;;;;;4.61;100.00;96865.09;29395;218;63009;-54
2024/03/06 00:05:44;;;;;;;0.60;0.60;;;;;;;4.60;100.00;96858.09;29395;202;63005;-55
2024/03/06 00:06:16;;;;;;;0.60;0.60;;;;;;;4.59;100.00;96857.28;29395;202;63024;-54
2024/03/06 00:06:47;;;;;;;0.50;0.50;;;;;;;4.58;100.00;96858.34;29395;202;63005;-53
2024/03/06 00:07:18;;;;;;;0.60;0.60;;;;;;;4.59;100.00;96856.47;29395;224;63009;-53
2024/03/06 00:07:49;;;;;;;0.60;0.60;;;;;;;4.60;100.00;96864.28;29395;250;63004;-54
2024/03/06 00:08:20;;;;;;;0.50;0.50;;;;;;;4.58;100.00;96861.03;29395;212;63009;-55
2024/03/06 00:08:52;;;;;;;0.60;0.60;;;;;;;4.58;100.00;96858.34;29395;208;63004;-53
2024/03/06 00:09:26;;;;;;;0.60;0.60;;;;;;;4.61;100.00;96859.72;29394;263;64009;-54
2024/03/06 00:09:58;;;;;;;0.60;0.60;;;;;;;4.61;100.00;96859.72;29395;202;63004;-54
2024/03/06 00:10:29;;;;;;;0.60;0.60;;;;;;;4.61;100.00;96860.50;29395;232;63008;-54
2024/03/06 00:11:00;;;;;;;0.60;0.60;;;;;;;4.60;100.00;96856.22;29395;241;63015;-54
2024/03/06 00:11:31;;;;;;;0.60;0.60;;;;;;;4.61;100.00;96860.50;29395;200;63013;-54
2024/03/06 00:12:04;;;;;;;0.60;0.60;;;;;;;4.62;100.00;96853.25;29395;285;63005;-54
2024/03/06 00:12:37;;;;;;;0.60;0.60;;;;;;;4.60;100.00;96858.91;29395;199;63027;-54
2024/03/06 00:13:08;;;;;;;0.60;0.60;;;;;;;4.60;100.00;96864.28;29395;206;63005;-54
2024/03/06 00:13:40;;;;;;;0.60;0.60;;;;;;;4.61;100.00;96855.16;29395;230;63009;-54
2024/03/06 00:14:12;;;;;;;0.60;0.60;;;;;;;4.61;100.00;96859.72;29395;248;63008;-53
2024/03/06 00:14:43;;;;;;;0.60;0.60;;;;;;;4.61;100.00;96862.38;29394;260;64009;-54
2024/03/06 00:15:15;;;;;;;0.57;0.57;;;;;;;4.61;100.00;96855.16;29395;208;63004;-54
2024/03/06 00:15:49;;;;;;;0.60;0.60;;;;;;;4.60;100.00;96852.72;29395;213;63009;-55
2024/03/06 00:16:21;;;;;;;0.50;0.50;;;;;;;4.60;100.00;96858.09;29395;237;63004;-54
2024/03/06 00:16:52;;;;;;;0.60;0.60;;;;;;;4.59;100.00;96862.66;29395;246;63009;-53
2024/03/06 00:17:24;;;;;;;0.60;0.60;;;;;;;4.59;100.00;96851.91;29395;291;63009;-54
2024/03/06 00:17:55;;;;;;;0.50;0.50;;;;;;;4.60;100.00;96853.53;29395;290;63008;-54
2024/03/06 00:18:27;;;;;;;0.60;0.60;;;;;;;4.62;100.00;96853.25;29395;249;63005;-54
2024/03/06 00:18:58;;;;;;;0.50;0.50;;;;;;;4.62;100.00;96851.38;29395;289;63009;-54
2024/03/06 00:19:29;;;;;;;0.60;0.60;;;;;;;4.62;100.00;96856.75;29395;272;63001;-54
2024/03/06 00:20:01;;;;;;;0.60;0.60;;;;;;;4.63;100.00;96853.00;29393;198;64009;-54
2024/03/06 00:20:33;;;;;;;0.60;0.60;;;;;;;4.62;100.00;96858.63;29395;272;63005;-53
2024/03/06 00:21:05;;;;;;;0.50;0.50;;;;;;;4.61;100.00;96849.75;29395;248;63009;-54
2024/03/06 00:21:36;;;;;;;0.55;0.55;;;;;;;4.62;100.00;96859.44;29395;258;63014;-54
2024/03/06 00:22:07;;;;;;;0.57;0.57;;;;;;;4.60;100.00;96858.91;29395;270;63009;-71
2024/03/06 00:22:39;;;;;;;0.90;0.90;;;;;;;4.61;100.00;96855.16;29395;241;63004;-54
2024/03/06 00:23:11;;;;;;;0.50;0.50;;;;;;;4.62;100.00;96867.50;29395;215;63009;-54
2024/03/06 00:23:45;;;;;;;0.50;0.50;;;;;;;4.62;100.00;96859.44;29395;202;63004;-54
2024/03/06 00:24:17;;;;;;;0.55;0.55;;;;;;;4.61;100.00;96860.50;29395;199;63027;-54
2024/03/06 00:24:48;;;;;;;0.50;0.50;;;;;;;4.63;100.00;96862.94;29395;224;63012;-54
2024/03/06 00:25:20;;;;;;;0.52;0.52;;;;;;;4.64;100.00;96859.19;29394;202;64008;-54
2024/03/06 00:25:52;;;;;;;0.60;0.60;;;;;;;4.63;100.00;96861.06;29395;209;63004;-53
2024/03/06 00:26:24;;;;;;;0.60;0.60;;;;;;;4.63;100.00;96863.75;29395;220;63009;-54
2024/03/06 00:26:55;;;;;;;0.60;0.60;;;;;;;4.63;100.00;96862.94;29395;270;63005;-54
2024/03/06 00:27:26;;;;;;;0.60;0.60;;;;;;;4.63;100.00;96871.00;29395;212;63009;-53
2024/03/06 00:27:58;;;;;;;0.50;0.50;;;;;;;4.63;100.00;96869.13;29395;287;63010;-54
2024/03/06 00:28:31;;;;;;;0.50;0.50;;;;;;;4.64;100.00;96873.44;29395;240;63022;-54
2024/03/06 00:29:03;;;;;;;0.60;0.60;;;;;;;4.63;100.00;96869.13;29395;221;63005;-53
2024/03/06 00:29:37;;;;;;;0.50;0.50;;;;;;;4.60;100.00;96866.97;29395;249;63009;-54
2024/03/06 00:30:10;;;;;;;0.50;0.50;;;;;;;4.58;100.00;96877.16;29395;245;63010;-54
2024/03/06 00:30:43;;;;;;;0.60;0.60;;;;;;;4.58;100.00;96870.97;29394;235;64009;-54
2024/03/06 00:31:14;;;;;;;0.60;0.60;;;;;;;4.58;100.00;96871.78;29395;196;63004;-54
2024/03/06 00:31:46;;;;;;;0.60;0.60;;;;;;;4.59;100.00;96876.09;29395;310;63009;-54
2024/03/06 00:32:18;;;;;;;0.60;0.60;;;;;;;4.59;100.00;96873.41;29395;255;63015;-53
2024/03/06 00:32:49;;;;;;;0.50;0.50;;;;;;;4.58;100.00;96874.47;29395;198;63008;-54
2024/03/06 00:33:21;;;;;;;0.60;0.60;;;;;;;4.55;100.00;96866.91;29395;235;63004;-53
2024/03/06 00:33:53;;;;;;;0.60;0.60;;;;;;;4.56;100.00;96870.41;29395;264;63009;-54
2024/03/06 00:34:25;;;;;;;0.60;0.60;;;;;;;4.57;100.00;96874.72;29395;261;63005;-54
2024/03/06 00:34:56;;;;;;;0.60;0.60;;;;;;;4.55;100.00;96869.59;29395;202;63009;-53
2024/03/06 00:35:28;;;;;;;0.60;0.60;;;;;;;4.52;100.00;96870.09;29395;240;63005;-53
2024/03/06 00:36:00;;;;;;;0.60;0.60;;;;;;;4.51;100.00;96870.34;29394;220;64009;-54
2024/03/06 00:36:32;;;;;;;0.60;0.60;;;;;;;4.51;100.00;96867.66;29395;219;63014;-54
2024/03/06 00:37:04;;;;;;;0.60;0.60;;;;;;;4.51;100.00;96876.53;29394;308;64009;-54
2024/03/06 00:37:36;;;;;;;0.52;0.52;;;;;;;4.52;100.00;96867.41;29395;249;63005;-54
2024/03/06 00:38:08;;;;;;;0.50;0.50;;;;;;;4.52;100.00;96872.78;29395;197;63009;-54
2024/03/06 00:38:39;;;;;;;0.50;0.50;;;;;;;4.52;100.00;96867.41;29395;259;63004;-54
2024/03/06 00:39:14;;;;;;;0.60;0.60;;;;;;;4.54;100.00;96869.84;29395;203;63009;-54
2024/03/06 00:39:47;;;;;;;0.60;0.60;;;;;;;4.55;100.00;96868.78;29395;196;63004;-54
2024/03/06 00:40:18;;;;;;;0.50;0.50;;;;;;;4.55;100.00;96868.78;29395;247;63008;-54
2024/03/06 00:40:49;;;;;;;0.60;0.60;;;;;;;4.54;100.00;96867.97;29395;203;63004;-54
2024/03/06 00:41:21;;;;;;;0.70;0.70;;;;;;;4.53;100.00;96869.03;29395;240;63009;-53
2024/03/06 00:41:55;;;;;;;0.50;0.50;;;;;;;4.51;100.00;96860.41;29395;251;63005;-54
2024/03/06 00:42:27;;;;;;;0.60;0.60;;;;;;;4.52;100.00;96864.72;29394;278;64009;-53
2024/03/06 00:42:59;;;;;;;0.60;0.60;;;;;;;4.53;100.00;96860.97;29395;261;63005;-53
2024/03/06 00:43:30;;;;;;;0.60;0.60;;;;;;;4.52;100.00;96862.03;29395;197;63009;-53
2024/03/06 00:44:03;;;;;;;0.65;0.65;;;;;;;4.52;100.00;96861.22;29395;263;63005;-54
2024/03/06 00:44:34;;;;;;;0.60;0.60;;;;;;;4.51;100.00;96860.41;29395;262;63013;-54
2024/03/06 00:45:07;;;;;;;0.60;0.60;;;;;;;4.52;100.00;96861.22;29395;240;63004;-54
2024/03/06 00:45:38;;;;;;;0.60;0.60;;;;;;;4.52;100.00;96850.47;29395;279;63009;-54
2024/03/06 00:46:09;;;;;;;0.60;0.60;;;;;;;4.50;100.00;96858.81;29395;247;63004;-53
2024/03/06 00:46:40;;;;;;;0.50;0.50;;;;;;;4.50;100.00;96850.75;29395;200;63009;-54
2024/03/06 00:47:11;;;;;;;0.60;0.60;;;;;;;4.50;100.00;96848.06;29395;293;63004;-53
2024/03/06 00:47:43;;;;;;;0.60;0.60;;;;;;;4.51;100.00;96854.22;29394;202;64008;-54
2024/03/06 00:48:14;;;;;;;0.60;0.60;;;;;;;4.50;100.00;96847.25;29395;214;63004;-54
2024/03/06 00:48:46;;;;;;;0.60;0.60;;;;;;;4.52;100.00;96850.47;29395;221;63009;-54
2024/03/06 00:49:18;;;;;;;0.60;0.60;;;;;;;4.51;100.00;96849.66;29395;283;63005;-54
2024/03/06 00:49:49;;;;;;;0.60;0.60;;;;;;;4.52;100.00;96851.28;29395;220;63009;-54
2024/03/06 00:50:21;;;;;;;0.60;0.60;;;;;;;4.53;100.00;96857.47;29395;208;63005;-55
2024/03/06 00:50:54;;;;;;;0.50;0.50;;;;;;;4.54;100.00;96853.72;29395;228;63009;-54
2024/03/06 00:51:30;;;;;;;0.50;0.50;;;;;;;4.52;100.00;96851.28;29395;213;63005;-54
2024/03/06 00:52:04;;;;;;;0.60;0.60;;;;;;;4.51;100.00;96856.91;29395;229;63009;-54
2024/03/06 00:52:35;;;;;;;0.60;0.60;;;;;;;4.53;100.00;96852.09;29395;241;63004;-54
2024/03/06 00:53:07;;;;;;;0.50;0.50;;;;;;;4.52;100.00;96859.34;29394;236;64009;-54
2024/03/06 00:53:38;;;;;;;0.60;0.60;;;;;;;4.49;100.00;96857.19;29395;248;63009;-54
2024/03/06 00:54:10;;;;;;;0.60;0.60;;;;;;;4.50;100.00;96856.13;29395;199;63009;-54
2024/03/06 00:54:41;;;;;;;0.50;0.50;;;;;;;4.51;100.00;96849.66;29395;205;63004;-54
2024/03/06 00:55:12;;;;;;;0.60;0.60;;;;;;;4.53;100.00;96855.59;29395;264;63008;-67
2024/03/06 00:55:43;;;;;;;0.60;0.60;;;;;;;4.55;100.00;96856.16;29395;276;63005;-54
2024/03/06 00:56:15;;;;;;;0.60;0.60;;;;;;;4.55;100.00;96850.78;29395;224;63009;-55
2024/03/06 00:56:46;;;;;;;0.60;0.60;;;;;;;4.56;100.00;96856.97;29395;229;63005;-54
2024/03/06 00:57:17;;;;;;;0.60;0.60;;;;;;;4.55;100.00;96855.34;29395;246;63009;-55
2024/03/06 00:57:48;;;;;;;0.60;0.60;;;;;;;4.54;100.00;96854.53;29395;209;63005;-54
2024/03/06 00:58:20;;;;;;;0.60;0.60;;;;;;;4.55;100.00;96860.72;29394;196;64009;-54
2024/03/06 00:58:51;;;;;;;0.60;0.60;;;;;;;4.54;100.00;96854.53;29395;210;63005;-53
2024/03/06 00:59:23;;;;;;;0.60;0.60;;;;;;;4.54;100.00;96864.47;29395;222;63009;-54
2024/03/06 00:59:55;;;;;;;0.57;0.57;;;;;;;4.53;100.00;96850.22;29395;215;63004;-54
2024/03/06 01:00:27;;;;;;;0.50;0.50;;;;;;;4.52;100.00;96850.47;29395;245;63022;-54
2024/03/06 01:00:59;;;;;;;0.60;0.60;;;;;;;4.54;100.00;96859.91;29395;250;63004;-54
2024/03/06 01:01:30;;;;;;;0.60;0.60;;;;;;;4.57;100.00;96859.41;29395;256;63009;-54
2024/03/06 01:02:01;;;;;;;0.50;0.50;;;;;;;4.60;100.00;96864.28;29395;199;63004;-54
2024/03/06 01:02:32;;;;;;;0.60;0.60;;;;;;;4.61;100.00;96863.19;29395;218;63008;-54
2024/03/06 01:03:05;;;;;;;0.60;0.60;;;;;;;4.62;100.00;96867.50;29395;210;63005;-54
2024/03/06 01:03:38;;;;;;;0.55;0.55;;;;;;;4.60;100.00;96864.28;29393;279;64009;-54
2024/03/06 01:04:10;;;;;;;0.60;0.60;;;;;;;4.58;100.00;96863.72;29395;291;63005;-53
2024/03/06 01:04:41;;;;;;;0.60;0.60;;;;;;;4.58;100.00;96866.41;29395;226;63009;-55
2024/03/06 01:05:12;;;;;;;0.60;0.60;;;;;;;4.58;100.00;96865.59;29395;239;63018;-54
2024/03/06 01:05:43;;;;;;;0.60;0.60;;;;;;;4.58;100.00;96868.28;29395;226;63009;-54
2024/03/06 01:06:15;;;;;;;0.55;0.55;;;;;;;4.58;100.00;96866.41;29395;238;63005;-54
2024/03/06 01:06:46;;;;;;;0.60;0.60;;;;;;;4.58;100.00;96869.09;29395;279;63009;-55
2024/03/06 01:07:21;;;;;;;0.57;0.57;;;;;;;4.57;100.00;96867.47;29395;233;63004;-54
2024/03/06 01:07:54;;;;;;;0.60;0.60;;;;;;;4.57;100.00;96864.78;29395;267;63009;-54
2024/03/06 01:08:25;;;;;;;0.50;0.50;;;;;;;4.57;100.00;96866.66;29395;197;63004;-54
2024/03/06 01:08:58;;;;;;;0.60;0.60;;;;;;;4.57;100.00;96864.78;29394;245;64009;-54
2024/03/06 01:09:29;;;;;;;0.50;0.50;;;;;;;4.57;100.00;96864.78;29395;278;63004;-55
2024/03/06 01:10:01;;;;;;;0.60;0.60;;;;;;;4.56;100.00;96863.16;29395;224;63008;-54
2024/03/06 01:10:32;;;;;;;0.50;0.50;;;;;;;4.55;100.00;96864.22;29395;222;63005;-54
2024/03/06 01:11:04;;;;;;;0.60;0.60;;;;;;;4.55;100.00;96860.72;29395;210;63014;-53
2024/03/06 01:11:35;;;;;;;0.60;0.60;;;;;;;4.55;100.00;96861.53;29395;199;63005;-54
2024/03/06 01:12:07;;;;;;;0.52;0.52;;;;;;;4.57;100.00;96867.47;29395;203;63016;-54
2024/03/06 01:12:38;;;;;;;0.60;0.60;;;;;;;4.57;100.00;96864.78;29395;242;63005;-54
2024/03/06 01:13:10;;;;;;;0.60;0.60;;;;;;;4.58;100.00;96863.72;29395;294;63009;-54
2024/03/06 01:13:42;;;;;;;0.60;0.60;;;;;;;4.59;100.00;96868.03;29395;224;63005;-54
2024/03/06 01:14:13;;;;;;;0.60;0.60;;;;;;;4.61;100.00;96867.75;29394;230;64009;-54
2024/03/06 01:14:44;;;;;;;0.60;0.60;;;;;;;4.61;100.00;96871.25;29395;214;63004;-54
2024/03/06 01:15:16;;;;;;;0.60;0.60;;;;;;;4.60;100.00;96875.03;29395;214;63009;-54
2024/03/06 01:15:47;;;;;;;0.50;0.50;;;;;;;4.60;100.00;96872.34;29395;236;63004;-54
2024/03/06 01:16:21;;;;;;;0.60;0.60;;;;;;;4.60;100.00;96872.34;29395;218;63009;-53
2024/03/06 01:16:55;;;;;;;0.50;0.50;;;;;;;4.59;100.00;96868.03;29395;279;63009;-54
2024/03/06 01:17:27;;;;;;;0.52;0.52;;;;;;;4.59;100.00;96873.41;29395;219;63008;-54
2024/03/06 01:17:58;;;;;;;0.60;0.60;;;;;;;4.59;100.00;96867.22;29395;198;63005;-54
2024/03/06 01:18:29;;;;;;;0.60;0.60;;;;;;;4.59;100.00;96875.28;29395;205;63009;-54
2024/03/06 01:19:00;;;;;;;0.60;0.60;;;;;;;4.58;100.00;96869.09;29395;357;63005;-54
2024/03/06 01:19:35;;;;;;;0.60;0.60;;;;;;;4.59;100.00;96870.72;29394;293;64009;-54
2024/03/06 01:20:08;;;;;;;0.50;0.50;;;;;;;4.60;100.00;96864.28;29395;206;63005;-69
2024/03/06 01:20:40;;;;;;;0.52;0.52;;;;;;;4.62;100.00;96862.13;29395;203;63009;-54
2024/03/06 01:21:11;;;;;;;0.60;0.60;;;;;;;4.59;100.00;96859.97;29395;221;63005;-54
2024/03/06 01:21:42;;;;;;;0.60;0.60;;;;;;;4.63;100.00;96866.44;29395;218;63009;-53
2024/03/06 01:22:14;;;;;;;0.60;0.60;;;;;;;4.64;100.00;96865.38;29395;336;63004;-53
2024/03/06 01:22:46;;;;;;;0.55;0.55;;;;;;;4.63;100.00;96869.13;29395;243;63009;-54
2024/03/06 01:23:17;;;;;;;0.60;0.60;;;;;;;4.63;100.00;96863.75;29395;246;63004;-54
2024/03/06 01:23:49;;;;;;;0.60;0.60;;;;;;;4.63;100.00;96869.13;29395;258;63009;-54
2024/03/06 01:24:20;;;;;;;0.60;0.60;;;;;;;4.64;100.00;96860.00;29395;196;63004;-54
2024/03/06 01:24:51;;;;;;;0.57;0.57;;;;;;;4.65;100.00;96863.50;29394;271;64008;-53
2024/03/06 01:25:23;;;;;;;0.60;0.60;;;;;;;4.67;100.00;96864.06;29395;237;63009;-54
2024/03/06 01:25:54;;;;;;;0.50;0.50;;;;;;;4.66;100.00;96865.94;29395;249;63009;-54
2024/03/06 01:26:26;;;;;;;0.60;0.60;;;;;;;4.67;100.00;96870.25;29395;200;63007;-54
2024/03/06 01:26:57;;;;;;;0.60;0.60;;;;;;;4.66;100.00;96868.63;29395;284;63009;-54
2024/03/06 01:27:31;;;;;;;0.60;0.60;;;;;;;4.66;100.00;96863.25;29395;205;63009;-54
2024/03/06 01:28:04;;;;;;;0.60;0.60;;;;;;;4.65;100.00;96869.69;29395;202;63009;-54
2024/03/06 01:28:36;;;;;;;0.50;0.50;;;;;;;4.65;100.00;96867.00;29395;221;63005;-54
2024/03/06 01:29:08;;;;;;;0.60;0.60;;;;;;;4.66;100.00;96870.50;29395;205;63009;-54
2024/03/06 01:29:39;;;;;;;0.60;0.60;;;;;;;4.66;100.00;96862.44;29395;246;63004;-54
2024/03/06 01:30:12;;;;;;;0.60;0.60;;;;;;;4.67;100.00;96870.25;29394;269;64009;-54
2024/03/06 01:30:45;;;;;;;0.60;0.60;;;;;;;4.67;100.00;96870.25;29395;225;63004;-54
2024/03/06 01:31:16;;;;;;;0.60;0.60;;;;;;;4.66;100.00;96871.31;29395;295;63009;-54
2024/03/06 01:31:47;;;;;;;0.60;0.60;;;;;;;4.67;100.00;96870.25;29395;210;63014;-53
2024/03/06 01:32:19;;;;;;;0.60;0.60;;;;;;;4.67;100.00;96864.88;29395;298;63008;-55
2024/03/06 01:32:50;;;;;;;0.50;0.50;;;;;;;4.67;100.00;96867.56;29395;245;63006;-55
2024/03/06 01:33:21;;;;;;;0.50;0.50;;;;;;;4.66;100.00;96863.25;29395;299;63009;-54
2024/03/06 01:33:53;;;;;;;0.50;0.50;;;;;;;4.66;100.00;96868.63;29395;235;63005;-55
2024/03/06 01:34:25;;;;;;;0.60;0.60;;;;;;;4.65;100.00;96867.00;29395;218;63009;-54
2024/03/06 01:34:57;;;;;;;0.60;0.60;;;;;;;4.67;100.00;96866.75;29395;246;63005;-54
2024/03/06 01:35:28;;;;;;;0.50;0.50;;;;;;;4.67;100.00;96870.25;29394;226;64009;-53
2024/03/06 01:35:59;;;;;;;0.60;0.60;;;;;;;4.67;100.00;96870.25;29395;266;63005;-55
2024/03/06 01:36:30;;;;;;;0.60;0.60;;;;;;;4.68;100.00;96866.50;29395;199;63009;-54
2024/03/06 01:37:02;;;;;;;0.60;0.60;;;;;;;4.66;100.00;96863.25;29395;225;63004;-54
2024/03/06 01:37:33;;;;;;;0.60;0.60;;;;;;;4.67;100.00;96866.75;29395;229;63009;-54
2024/03/06 01:38:04;;;;;;;0.60;0.60;;;;;;;4.67;100.00;96864.88;29395;209;63004;-53
2024/03/06 01:38:36;;;;;;;0.60;0.60;;;;;;;4.68;100.00;96865.69;29395;216;63009;-54
2024/03/06 01:39:07;;;;;;;0.52;0.52;;;;;;;4.68;100.00;96860.31;29395;236;63004;-54
2024/03/06 01:39:39;;;;;;;0.50;0.50;;;;;;;4.70;100.00;96867.06;29395;270;63008;-54
2024/03/06 01:40:12;;;;;;;0.60;0.60;;;;;;;4.76;100.00;96861.72;29395;250;63005;-55
2024/03/06 01:40:45;;;;;;;0.50;0.50;;;;;;;4.79;100.00;96859.34;29394;213;64009;-54
2024/03/06 01:41:16;;;;;;;0.60;0.60;;;;;;;4.81;100.00;96867.16;29395;297;63005;-54
2024/03/06 01:41:49;;;;;;;0.60;0.60;;;;;;;4.79;100.00;96861.22;29395;235;63009;-54
2024/03/06 01:42:20;;;;;;;0.60;0.60;;;;;;;4.79;100.00;96862.03;29394;238;64005;-71
2024/03/06 01:42:51;;;;;;;0.60;0.60;;;;;;;4.79;100.00;96867.41;29395;243;63009;-54
2024/03/06 01:43:24;;;;;;;0.60;0.60;;;;;;;4.78;100.00;96867.66;29395;197;63005;-54
2024/03/06 01:43:56;;;;;;;0.60;0.60;;;;;;;4.77;100.00;96868.72;29395;222;63009;-55
2024/03/06 01:44:27;;;;;;;0.60;0.60;;;;;;;4.77;100.00;96866.03;29395;225;63004;-53
2024/03/06 01:44:59;;;;;;;0.57;0.57;;;;;;;4.76;100.00;96867.09;29395;260;63009;-54
2024/03/06 01:45:31;;;;;;;0.52;0.52;;;;;;;4.77;100.00;96874.09;29395;208;63004;-54
2024/03/06 01:46:03;;;;;;;0.50;0.50;;;;;;;4.77;100.00;96868.72;29394;261;64009;-54
2024/03/06 01:46:34;;;;;;;0.55;0.55;;;;;;;4.77;100.00;96869.53;29395;206;63004;-54
2024/03/06 01:47:06;;;;;;;0.60;0.60;;;;;;;4.77;100.00;96879.47;29395;231;63008;-54
2024/03/06 01:47:38;;;;;;;0.60;0.60;;;;;;;4.75;100.00;96876.22;29395;217;63005;-54
2024/03/06 01:48:09;;;;;;;0.60;0.60;;;;;;;4.74;100.00;96874.59;29395;254;63009;-54
2024/03/06 01:48:42;;;;;;;0.50;0.50;;;;;;;4.74;100.00;96875.41;29395;208;63005;-54
2024/03/06 01:49:15;;;;;;;0.60;0.60;;;;;;;4.72;100.00;96869.50;29395;202;63018;-54
2024/03/06 01:49:47;;;;;;;0.60;0.60;;;;;;;4.71;100.00;96876.75;29395;210;63005;-54
2024/03/06 01:50:19;;;;;;;0.60;0.60;;;;;;;4.69;100.00;96873.50;29395;213;63009;-54
2024/03/06 01:50:50;;;;;;;0.50;0.50;;;;;;;4.69;100.00;96872.69;29395;220;63013;-53
2024/03/06 01:51:22;;;;;;;0.60;0.60;;;;;;;4.69;100.00;96868.13;29394;267;64009;-54
2024/03/06 01:51:56;;;;;;;0.60;0.60;;;;;;;4.68;100.00;96866.50;29395;231;63008;-54
2024/03/06 01:52:27;;;;;;;0.60;0.60;;;;;;;4.68;100.00;96877.25;29395;292;63009;-54
2024/03/06 01:52:59;;;;;;;0.60;0.60;;;;;;;4.69;100.00;96870.00;29395;208;63014;-54
2024/03/06 01:53:33;;;;;;;0.60;0.60;;;;;;;4.67;100.00;96875.63;29395;281;63009;-54
2024/03/06 01:54:05;;;;;;;0.60;0.60;;;;;;;4.68;100.00;96871.88;29395;243;63004;-54
2024/03/06 01:54:36;;;;;;;0.60;0.60;;;;;;;4.68;100.00;96871.88;29395;243;63008;-54
2024/03/06 01:55:09;;;;;;;0.60;0.60;;;;;;;4.68;100.00;96871.88;29395;238;63005;-54
2024/03/06 01:55:41;;;;;;;0.60;0.60;;;;;;;4.69;100.00;96862.75;29395;197;63009;-54
2024/03/06 01:56:17;;;;;;;0.52;0.52;;;;;;;4.67;100.00;96870.25;29395;206;63005;-53
2024/03/06 01:56:50;;;;;;;0.50;0.50;;;;;;;4.66;100.00;96863.25;29394;269;64009;-54
2024/03/06 01:57:21;;;;;;;0.60;0.60;;;;;;;4.66;100.00;96868.63;29395;197;63005;-54
2024/03/06 01:57:53;;;;;;;0.60;0.60;;;;;;;4.63;100.00;96869.13;29395;265;63009;-54
2024/03/06 01:58:24;;;;;;;0.60;0.60;;;;;;;4.63;100.00;96866.44;29395;236;63005;-53
2024/03/06 01:58:56;;;;;;;0.60;0.60;;;;;;;4.63;100.00;96869.13;29395;282;63009;-54
2024/03/06 01:59:29;;;;;;;0.50;0.50;;;;;;;4.64;100.00;96865.38;29395;250;63004;-54
2024/03/06 02:00:03;;;;;;;0.60;0.60;;;;;;;4.64;100.00;96865.38;29395;252;63009;-54
2024/03/06 02:00:35;;;;;;;0.60;0.60;;;;;;;4.65;100.00;96867.00;29394;225;64004;-54
2024/03/06 02:01:07;;;;;;;0.60;0.60;;;;;;;4.64;100.00;96865.38;29395;210;63009;-54
2024/03/06 02:01:40;;;;;;;0.60;0.60;;;;;;;4.63;100.00;96869.13;29395;347;63004;-54
2024/03/06 02:02:13;;;;;;;0.60;0.60;;;;;;;4.62;100.00;96870.19;29395;254;63008;-54
2024/03/06 02:02:45;;;;;;;0.60;0.60;;;;;;;4.62;100.00;96870.19;29395;233;63005;-54
2024/03/06 02:03:19;;;;;;;0.60;0.60;;;;;;;4.63;100.00;96868.31;29395;219;63009;-54
2024/03/06 02:03:52;;;;;;;0.60;0.60;;;;;;;4.62;100.00;96864.81;29395;229;63005;-54
2024/03/06 02:04:27;;;;;;;0.60;0.60;;;;;;;4.62;100.00;96867.50;29395;207;63009;-55
2024/03/06 02:05:00;;;;;;;0.60;0.60;;;;;;;4.62;100.00;96864.81;29395;222;63005;-70
2024/03/06 02:05:33;;;;;;;0.60;0.60;;;;;;;4.63;100.00;96873.69;29395;202;63009;-53
2024/03/06 02:06:06;;;;;;;0.60;0.60;;;;;;;4.64;100.00;96868.06;29394;259;64005;-54
2024/03/06 02:06:40;;;;;;;0.50;0.50;;;;;;;4.63;100.00;96874.50;29394;244;64009;-54
2024/03/06 02:07:11;;;;;;;0.60;0.60;;;;;;;4.62;100.00;96872.88;29395;228;63004;-54
2024/03/06 02:07:44;;;;;;;0.60;0.60;;;;;;;4.62;100.00;96870.19;29395;221;63018;-54
2024/03/06 02:08:16;;;;;;;0.60;0.60;;;;;;;4.62;100.00;96872.88;29395;224;63004;-54
2024/03/06 02:08:48;;;;;;;0.60;0.60;;;;;;;4.60;100.00;96875.03;29395;232;63009;-55
2024/03/06 02:09:19;;;;;;;0.60;0.60;;;;;;;4.59;100.00;96868.03;29395;217;63004;-54
2024/03/06 02:09:50;;;;;;;0.60;0.60;;;;;;;4.58;100.00;96877.16;29395;214;63008;-54
2024/03/06 02:10:22;;;;;;;0.60;0.60;;;;;;;4.57;100.00;96875.53;29395;198;63005;-54
2024/03/06 02:10:53;;;;;;;0.50;0.50;;;;;;;4.55;100.00;96877.66;29395;197;63009;-67
2024/03/06 02:11:24;;;;;;;0.57;0.57;;;;;;;4.53;100.00;96868.22;29394;203;64005;-54
2024/03/06 02:11:56;;;;;;;0.60;0.60;;;;;;;4.53;100.00;96873.59;29395;222;63009;-54
2024/03/06 02:12:27;;;;;;;0.60;0.60;;;;;;;4.53;100.00;96873.59;29395;222;63018;-54
2024/03/06 02:12:58;;;;;;;0.60;0.60;;;;;;;4.53;100.00;96874.41;29395;232;63009;-54
2024/03/06 02:13:30;;;;;;;0.68;0.68;;;;;;;4.54;100.00;96875.22;29395;250;63004;-54
2024/03/06 02:14:02;;;;;;;0.60;0.60;;;;;;;4.52;100.00;96872.78;29395;229;63009;-54
2024/03/06 02:14:38;;;;;;;0.60;0.60;;;;;;;4.50;100.00;96869.56;29395;218;63004;-54
2024/03/06 02:15:12;;;;;;;0.60;0.60;;;;;;;4.50;100.00;96874.13;29395;232;63013;-53
2024/03/06 02:15:45;;;;;;;0.60;0.60;;;;;;;4.48;100.00;96866.31;29395;244;63004;-54
2024/03/06 02:16:17;;;;;;;0.60;0.60;;;;;;;4.49;100.00;96878.69;29395;209;63008;-54
2024/03/06 02:16:48;;;;;;;0.60;0.60;;;;;;;4.50;100.00;96868.75;29394;212;64004;-54
2024/03/06 02:17:19;;;;;;;0.60;0.60;;;;;;;4.51;100.00;96873.03;29395;196;63008;-54
2024/03/06 02:17:52;;;;;;;0.60;0.60;;;;;;;4.51;100.00;96870.34;29395;230;63005;-54
2024/03/06 02:18:23;;;;;;;0.60;0.60;;;;;;;4.53;100.00;96874.41;29395;223;63009;-54
2024/03/06 02:18:55;;;;;;;0.57;0.57;;;;;;;4.54;100.00;96875.22;29395;224;63005;-54
2024/03/06 02:19:38;;;;;;;0.60;0.60;;;;;;;4.54;100.00;96873.34;29395;206;63024;-54
2024/03/06 02:20:12;;;;;;;0.60;0.60;;;;;;;4.55;100.00;96871.47;29395;245;63014;-54
2024/03/06 02:20:43;;;;;;;0.60;0.60;;;;;;;4.55;100.00;96877.66;29395;238;63009;-54
2024/03/06 02:21:14;;;;;;;0.60;0.60;;;;;;;4.56;100.00;96868.53;29395;196;63008;-68
2024/03/06 02:21:45;;;;;;;0.60;0.60;;;;;;;4.58;100.00;96876.34;29395;248;63009;-54
2024/03/06 02:22:17;;;;;;;0.60;0.60;;;;;;;4.57;100.00;96872.84;29394;216;64004;-54
2024/03/06 02:22:48;;;;;;;0.60;0.60;;;;;;;4.57;100.00;96867.47;29395;197;63009;-54
2024/03/06 02:23:20;;;;;;;0.60;0.60;;;;;;;4.57;100.00;96870.16;29395;293;63004;-53
2024/03/06 02:23:52;;;;;;;0.60;0.60;;;;;;;4.60;100.00;96869.66;29395;216;63008;-54
2024/03/06 02:24:23;;;;;;;0.50;0.50;;;;;;;4.61;100.00;96871.25;29395;264;63005;-54
2024/03/06 02:24:54;;;;;;;0.50;0.50;;;;;;;4.61;100.00;96873.94;29395;266;63009;-54
2024/03/06 02:25:27;;;;;;;0.50;0.50;;;;;;;4.61;100.00;96876.63;29395;241;63007;-54
2024/03/06 02:25:58;;;;;;;0.57;0.57;;;;;;;4.62;100.00;96874.75;29395;266;63009;-54
2024/03/06 02:26:29;;;;;;;0.50;0.50;;;;;;;4.60;100.00;96880.41;29395;239;63005;-53
2024/03/06 02:27:00;;;;;;;0.60;0.60;;;;;;;4.60;100.00;96875.03;29395;197;63009;-53
2024/03/06 02:27:32;;;;;;;0.60;0.60;;;;;;;4.60;100.00;96880.41;29394;197;64005;-53
2024/03/06 02:28:06;;;;;;;0.50;0.50;;;;;;;4.59;100.00;96872.59;29395;244;63009;-54
2024/03/06 02:28:39;;;;;;;0.60;0.60;;;;;;;4.58;100.00;96877.16;29395;202;63008;-54
2024/03/06 02:29:10;;;;;;;1.12;1.12;;;;;;;4.59;100.00;96873.41;29395;202;63009;-54
2024/03/06 02:29:41;;;;;;;0.60;0.60;;;;;;;4.59;100.00;96878.78;29395;202;63004;-54
2024/03/06 02:30:13;;;;;;;0.60;0.60;;;;;;;4.60;100.00;96884.97;29395;285;63009;-53
2024/03/06 02:30:44;;;;;;;0.60;0.60;;;;;;;4.62;100.00;96878.25;29395;198;63007;-53
2024/03/06 02:31:17;;;;;;;0.60;0.60;;;;;;;4.61;100.00;96871.25;29395;198;63008;-54
2024/03/06 02:31:48;;;;;;;0.60;0.60;;;;;;;4.61;100.00;96873.12;29395;223;63005;-54
2024/03/06 02:32:19;;;;;;;0.60;0.60;;;;;;;4.60;100.00;96875.03;29395;195;63009;-54